Time;durP1;ratioP1;P1;durP2;ratioP2;P2;SDS_P1;SDS_P2;PMS_P1;PMS_P2;Temp;Humidity;BMP_temperature;BMP_pressure;BME280_temperature;BME280_humidity;BME280_pressure;Samples;Min_cycle;Max_cycle;Signal;HPM_P1;HPM_P2
2024/01/28 00:00:41;;;;;;;1999.90;999.90;;;-2.20;99.90;;;;;;4975364;28;20031;-85
2024/01/28 00:03:07;;;;;;;1999.90;999.90;;;-2.20;99.90;;;;;;4968982;28;20048;-86
2024/01/28 00:05:32;;;;;;;1999.90;999.90;;;-2.20;99.90;;;;;;4973534;28;20038;-85
2024/01/28 00:07:58;;;;;;;1999.90;999.90;;;-2.20;99.90;;;;;;4973997;28;20058;-86
2024/01/28 00:10:25;;;;;;;1999.90;999.90;;;-2.20;99.90;;;;;;4975159;28;20536;-85
2024/01/28 00:12:50;;;;;;;1999.90;999.90;;;-2.30;99.90;;;;;;4979654;28;20085;-85
2024/01/28 00:15:16;;;;;;;1999.90;999.90;;;-2.30;99.90;;;;;;4976724;28;20461;-85
2024/01/28 00:17:41;;;;;;;1999.90;999.90;;;-2.30;99.90;;;;;;4975692;28;20458;-87
2024/01/28 00:20:08;;;;;;;1999.90;999.90;;;-2.30;99.90;;;;;;4967125;28;20067;-84
2024/01/28 00:22:33;;;;;;;1999.90;999.90;;;-2.30;99.90;;;;;;4975861;28;20036;-85
2024/01/28 00:24:59;;;;;;;1999.90;999.90;;;-2.30;99.90;;;;;;4966990;28;20502;-85
2024/01/28 00:27:25;;;;;;;1999.90;999.90;;;-2.30;99.90;;;;;;4960599;28;20620;-85
2024/01/28 00:29:51;;;;;;;1999.90;999.90;;;-2.30;99.90;;;;;;4960829;28;20048;-84
2024/01/28 00:32:16;;;;;;;1999.90;999.90;;;-2.20;99.90;;;;;;4959624;28;20036;-84
2024/01/28 00:34:42;;;;;;;1999.90;999.90;;;-2.10;99.90;;;;;;4959408;28;20040;-84
2024/01/28 00:37:08;;;;;;;1999.90;999.90;;;-2.10;99.90;;;;;;4958802;28;20393;-84
2024/01/28 00:39:35;;;;;;;1999.90;999.90;;;-2.10;99.90;;;;;;4961532;28;20046;-84
2024/01/28 00:42:01;;;;;;;1999.90;999.90;;;-2.10;99.90;;;;;;4958924;28;20031;-84
2024/01/28 00:44:27;;;;;;;1999.90;999.90;;;-2.10;99.90;;;;;;4958903;28;20040;-84
2024/01/28 00:46:55;;;;;;;1999.90;999.90;;;-2.10;99.90;;;;;;4960106;28;20032;-84
2024/01/28 00:49:23;;;;;;;1999.90;999.90;;;-2.10;99.90;;;;;;4959231;28;20035;-84
2024/01/28 00:51:49;;;;;;;1999.90;999.90;;;-2.10;99.90;;;;;;4957943;28;20115;-86
2024/01/28 00:54:15;;;;;;;1999.90;999.90;;;-2.10;99.90;;;;;;4957675;28;20118;-86
2024/01/28 00:56:41;;;;;;;1999.90;999.90;;;-2.10;99.90;;;;;;4957682;28;20046;-85
2024/01/28 00:59:06;;;;;;;1999.90;999.90;;;-2.10;99.90;;;;;;4958637;28;20047;-85
2024/01/28 01:01:32;;;;;;;1999.90;999.90;;;-2.10;99.90;;;;;;4957378;28;20500;-85
2024/01/28 01:03:58;;;;;;;1999.90;999.90;;;-2.10;99.90;;;;;;4958767;28;20406;-85
2024/01/28 01:06:23;;;;;;;1999.90;999.90;;;-2.10;99.90;;;;;;4958850;28;20498;-85
2024/01/28 01:08:49;;;;;;;1999.90;999.90;;;-2.20;99.90;;;;;;4958842;28;20044;-86
2024/01/28 01:11:14;;;;;;;1999.90;999.90;;;-2.20;99.90;;;;;;4958683;28;20038;-86
2024/01/28 01:13:40;;;;;;;1999.90;999.90;;;-2.20;99.90;;;;;;4958923;28;20114;-86
2024/01/28 01:16:06;;;;;;;1999.90;999.90;;;-2.20;99.90;;;;;;4957353;28;20114;-85
2024/01/28 01:18:31;;;;;;;1999.90;999.90;;;-2.20;99.90;;;;;;4956972;28;20043;-85
2024/01/28 01:20:57;;;;;;;1999.90;999.90;;;-2.20;99.90;;;;;;4959249;28;20031;-85
2024/01/28 01:23:22;;;;;;;1999.90;999.90;;;-2.20;99.90;;;;;;4959953;28;20095;-84
2024/01/28 01:25:48;;;;;;;1999.90;999.90;;;-2.20;99.90;;;;;;4960063;28;20099;-85
2024/01/28 01:28:13;;;;;;;1999.90;999.90;;;-2.20;99.90;;;;;;4959260;28;20039;-84
2024/01/28 01:30:39;;;;;;;1999.90;999.90;;;-2.20;99.90;;;;;;4959572;28;20108;-84
2024/01/28 01:33:05;;;;;;;1999.90;999.90;;;-2.20;99.90;;;;;;4958986;28;20052;-84
2024/01/28 01:35:30;;;;;;;1999.90;999.90;;;-2.30;99.90;;;;;;4960252;28;20042;-84
2024/01/28 01:37:56;;;;;;;1999.90;999.90;;;-2.30;99.90;;;;;;4960636;28;20039;-84
2024/01/28 01:40:21;;;;;;;1999.90;999.90;;;-2.40;99.90;;;;;;4961884;28;20038;-84
2024/01/28 01:42:47;;;;;;;1999.90;999.90;;;-2.40;99.90;;;;;;4960054;28;20043;-84
2024/01/28 01:45:13;;;;;;;1999.90;999.90;;;-2.50;99.90;;;;;;4961194;28;20036;-84
2024/01/28 01:47:42;;;;;;;1999.90;999.90;;;-2.50;99.90;;;;;;4959506;28;20140;-85
2024/01/28 01:50:10;;;;;;;1999.90;999.90;;;-2.50;99.90;;;;;;4956610;28;20036;-85
2024/01/28 01:52:41;;;;;;;1999.90;999.90;;;-2.50;99.90;;;;;;4956584;28;20501;-85
2024/01/28 01:55:07;;;;;;;1999.90;999.90;;;-2.50;99.90;;;;;;4956936;28;20122;-85
2024/01/28 01:57:34;;;;;;;1999.90;999.90;;;-2.50;99.90;;;;;;4956797;28;20035;-85
2024/01/28 01:59:59;;;;;;;1999.90;999.90;;;-2.60;99.90;;;;;;4957719;28;20042;-85
2024/01/28 02:02:26;;;;;;;1999.90;999.90;;;-2.60;99.90;;;;;;4956384;28;20552;-85
2024/01/28 02:04:52;;;;;;;1999.90;999.90;;;-2.60;99.90;;;;;;4956712;28;20047;-86
2024/01/28 02:07:18;;;;;;;1999.90;999.90;;;-2.60;99.90;;;;;;4956552;28;20043;-86
2024/01/28 02:09:43;;;;;;;1999.90;999.90;;;-2.60;99.90;;;;;;4957804;28;20036;-85
2024/01/28 02:12:09;;;;;;;1999.90;999.90;;;-2.50;99.90;;;;;;4956605;28;20074;-85
2024/01/28 02:14:35;;;;;;;1999.90;999.90;;;-2.50;99.90;;;;;;4956561;28;20036;-85
2024/01/28 02:17:01;;;;;;;1999.90;999.90;;;-2.40;99.90;;;;;;4956526;28;20505;-85
2024/01/28 02:19:27;;;;;;;1999.90;999.90;;;-2.40;99.90;;;;;;4956605;28;20035;-85
2024/01/28 02:21:53;;;;;;;1999.90;999.90;;;-2.40;99.90;;;;;;4960558;28;20059;-85
2024/01/28 02:24:19;;;;;;;1999.90;999.90;;;-2.40;99.90;;;;;;4964114;28;20078;-85
2024/01/28 02:26:44;;;;;;;1999.90;999.90;;;-2.40;99.90;;;;;;4956787;28;20478;-85
2024/01/28 02:29:10;;;;;;;1999.90;999.90;;;-2.40;99.90;;;;;;4956700;28;20414;-86
2024/01/28 02:31:36;;;;;;;1999.90;999.90;;;-2.40;99.90;;;;;;4987268;23;20058;-86
2024/01/28 02:34:01;;;;;;;1999.90;999.90;;;-2.40;99.90;;;;;;4976272;28;20043;-86
2024/01/28 02:36:28;;;;;;;1999.90;999.90;;;-2.40;99.90;;;;;;4976450;28;20032;-86
2024/01/28 02:38:54;;;;;;;1999.90;999.90;;;-2.40;99.90;;;;;;4976418;28;20032;-86
2024/01/28 02:41:20;;;;;;;1999.90;999.90;;;-2.40;99.90;;;;;;4975792;28;20035;-86
2024/01/28 02:43:46;;;;;;;1999.90;999.90;;;-2.40;99.90;;;;;;4975762;28;20051;-86
2024/01/28 02:46:13;;;;;;;1999.90;999.90;;;-2.40;99.90;;;;;;4976053;28;20039;-86
2024/01/28 02:48:38;;;;;;;1999.90;999.90;;;-2.50;99.90;;;;;;4976092;28;20523;-85
2024/01/28 02:51:04;;;;;;;1999.90;999.90;;;-2.50;99.90;;;;;;4975767;28;20046;-86
2024/01/28 02:53:29;;;;;;;1999.90;999.90;;;-2.50;99.90;;;;;;4975720;28;20043;-85
2024/01/28 02:55:59;;;;;;;1999.90;999.90;;;-2.60;99.90;;;;;;4975810;28;20058;-86
2024/01/28 02:58:25;;;;;;;1999.90;999.90;;;-2.60;99.90;;;;;;4975831;28;20035;-86
2024/01/28 03:00:51;;;;;;;1999.90;999.90;;;-2.60;99.90;;;;;;4975647;28;20039;-86
2024/01/28 03:03:16;;;;;;;1999.90;999.90;;;-2.60;99.90;;;;;;4976082;28;20047;-85
2024/01/28 03:05:42;;;;;;;1999.90;999.90;;;-2.60;99.90;;;;;;4977076;28;20034;-86
2024/01/28 03:08:07;;;;;;;1999.90;999.90;;;-2.60;99.90;;;;;;4977701;28;20482;-86
2024/01/28 03:10:34;;;;;;;1999.90;999.90;;;-2.60;99.90;;;;;;4976488;28;20031;-85
2024/01/28 03:13:00;;;;;;;1999.90;999.90;;;-2.60;99.90;;;;;;4975983;28;20109;-86
2024/01/28 03:15:25;;;;;;;1999.90;999.90;;;-2.60;99.90;;;;;;4978080;28;20086;-86
2024/01/28 03:17:51;;;;;;;1999.90;999.90;;;-2.60;99.90;;;;;;4978074;28;20070;-85
2024/01/28 03:20:17;;;;;;;1999.90;999.90;;;-2.60;99.90;;;;;;4976651;28;20035;-86
2024/01/28 03:22:43;;;;;;;1999.90;999.90;;;-2.60;99.90;;;;;;4976297;28;20043;-86
2024/01/28 03:25:08;;;;;;;1999.90;999.90;;;-2.50;99.90;;;;;;4976751;28;20066;-86
2024/01/28 03:27:35;;;;;;;1999.90;999.90;;;-2.50;99.90;;;;;;4978028;28;20393;-86
2024/01/28 03:30:01;;;;;;;1999.90;999.90;;;-2.50;99.90;;;;;;4975605;28;20039;-86
2024/01/28 03:32:27;;;;;;;1999.90;999.90;;;-2.60;99.90;;;;;;4975996;28;20035;-86
2024/01/28 03:34:52;;;;;;;1999.90;999.90;;;-2.60;99.90;;;;;;4976174;28;20390;-86
2024/01/28 03:37:18;;;;;;;1999.90;999.90;;;-2.60;99.90;;;;;;4976089;28;20118;-86
2024/01/28 03:39:43;;;;;;;1999.90;999.90;;;-2.70;99.90;;;;;;4977365;28;20046;-86
2024/01/28 03:42:10;;;;;;;1999.90;999.90;;;-2.70;99.90;;;;;;4975940;28;20031;-86
2024/01/28 03:44:36;;;;;;;1999.90;999.90;;;-2.70;99.90;;;;;;4975792;28;20513;-86
2024/01/28 03:47:01;;;;;;;1999.90;999.90;;;-2.70;99.90;;;;;;4975021;28;20042;-86
2024/01/28 03:49:27;;;;;;;1999.90;999.90;;;-2.80;99.90;;;;;;4975072;28;20066;-86
2024/01/28 03:51:53;;;;;;;1999.90;999.90;;;-2.80;99.90;;;;;;4974618;28;20126;-86
2024/01/28 03:54:19;;;;;;;1999.90;999.90;;;-2.80;99.90;;;;;;4974859;28;20031;-86
2024/01/28 03:56:44;;;;;;;1999.90;999.90;;;-2.80;99.90;;;;;;4977862;28;20102;-86
2024/01/28 03:59:10;;;;;;;1999.90;999.90;;;-2.80;99.90;;;;;;4978350;28;20129;-86
2024/01/28 04:01:36;;;;;;;1999.90;999.90;;;-2.90;99.90;;;;;;4978032;28;20035;-85
2024/01/28 04:04:02;;;;;;;1999.90;999.90;;;-2.90;99.90;;;;;;4979519;28;20507;-85
2024/01/28 04:06:28;;;;;;;1999.90;999.90;;;-2.90;99.90;;;;;;4978145;28;20067;-85
2024/01/28 04:08:56;;;;;;;1999.90;999.90;;;-2.90;99.90;;;;;;4977894;28;20086;-85
2024/01/28 04:11:26;;;;;;;1999.90;999.90;;;-2.90;99.90;;;;;;4977755;28;20039;-83
2024/01/28 04:13:54;;;;;;;1999.90;999.90;;;-2.90;99.90;;;;;;4979353;28;20046;-83
2024/01/28 04:16:23;;;;;;;1999.90;999.90;;;-2.90;99.90;;;;;;4979413;28;20454;-83
2024/01/28 04:18:49;;;;;;;1999.90;999.90;;;-2.90;99.90;;;;;;4978120;28;20031;-83
2024/01/28 04:21:15;;;;;;;1999.90;999.90;;;-2.90;99.90;;;;;;4977584;28;20036;-83
2024/01/28 04:23:41;;;;;;;1999.90;999.90;;;-2.80;99.90;;;;;;4977892;28;20039;-83
2024/01/28 04:26:07;;;;;;;1999.90;999.90;;;-2.80;99.90;;;;;;4979339;28;20038;-83
2024/01/28 04:28:32;;;;;;;1999.90;999.90;;;-2.80;99.90;;;;;;4977902;28;20180;-83
2024/01/28 04:30:58;;;;;;;1999.90;999.90;;;-2.80;99.90;;;;;;4977446;28;20412;-83
2024/01/28 04:33:24;;;;;;;1999.90;999.90;;;-2.80;99.90;;;;;;4979141;28;20035;-83
2024/01/28 04:35:50;;;;;;;1999.90;999.90;;;-2.80;99.90;;;;;;4977808;28;20031;-83
2024/01/28 04:38:16;;;;;;;1999.90;999.90;;;-2.80;99.90;;;;;;4978998;28;20035;-83
2024/01/28 04:40:41;;;;;;;1999.90;999.90;;;-2.80;99.90;;;;;;4977485;28;20035;-83
2024/01/28 04:43:07;;;;;;;1999.90;999.90;;;-2.80;99.90;;;;;;4977376;28;20039;-83
2024/01/28 04:45:33;;;;;;;1999.90;999.90;;;-2.80;99.90;;;;;;4977605;28;20035;-83
2024/01/28 04:47:58;;;;;;;1999.90;999.90;;;-2.80;99.90;;;;;;4978664;28;20031;-83
2024/01/28 04:50:24;;;;;;;1999.90;999.90;;;-2.80;99.90;;;;;;4977210;28;20082;-83
2024/01/28 04:52:50;;;;;;;1999.90;999.90;;;-2.80;99.90;;;;;;4977398;28;20038;-83
2024/01/28 04:55:16;;;;;;;1999.90;999.90;;;-2.90;99.90;;;;;;4977393;28;20039;-83
2024/01/28 04:57:41;;;;;;;1999.90;999.90;;;-2.80;99.90;;;;;;4977352;28;20036;-83
2024/01/28 05:00:10;;;;;;;1999.90;999.90;;;-2.80;99.90;;;;;;4977219;28;20035;-83
2024/01/28 05:02:36;;;;;;;1999.90;999.90;;;-2.80;99.90;;;;;;4977209;28;20023;-83
2024/01/28 05:05:02;;;;;;;1999.90;999.90;;;-2.80;99.90;;;;;;4977162;28;20490;-83
2024/01/28 05:07:27;;;;;;;1999.90;999.90;;;-2.80;99.90;;;;;;4977234;28;20072;-83
2024/01/28 05:09:53;;;;;;;1999.90;999.90;;;-2.80;99.90;;;;;;4977014;28;20055;-83
2024/01/28 05:12:19;;;;;;;1999.90;999.90;;;-2.80;99.90;;;;;;4977058;28;20453;-84
2024/01/28 05:14:46;;;;;;;1999.90;999.90;;;-2.90;99.90;;;;;;4976759;28;20106;-83
2024/01/28 05:17:12;;;;;;;1999.90;999.90;;;-2.90;99.90;;;;;;4978281;28;20038;-83
2024/01/28 05:19:37;;;;;;;1999.90;999.90;;;-2.90;99.90;;;;;;4976667;28;20405;-83
2024/01/28 05:22:04;;;;;;;1999.90;999.90;;;-3.00;99.90;;;;;;4976588;28;20031;-83
2024/01/28 05:24:30;;;;;;;1999.90;999.90;;;-3.00;99.90;;;;;;4978216;28;20067;-83
2024/01/28 05:26:55;;;;;;;1999.90;999.90;;;-3.10;99.90;;;;;;4976998;28;20054;-83
2024/01/28 05:29:21;;;;;;;1999.90;999.90;;;-3.10;99.90;;;;;;4978096;28;20035;-83
2024/01/28 05:31:46;;;;;;;1999.90;999.90;;;-3.10;99.90;;;;;;4976383;28;20508;-83
2024/01/28 05:34:12;;;;;;;1999.90;999.90;;;-3.10;99.90;;;;;;4976825;28;20409;-83
2024/01/28 05:36:37;;;;;;;1999.90;999.90;;;-3.10;99.90;;;;;;4976835;28;20066;-82
2024/01/28 05:39:03;;;;;;;1999.90;999.90;;;-3.10;99.90;;;;;;4976812;28;20509;-83
2024/01/28 05:41:29;;;;;;;1999.90;999.90;;;-3.00;99.90;;;;;;4976191;28;20473;-83
2024/01/28 05:43:54;;;;;;;1999.90;999.90;;;-3.00;99.90;;;;;;4976643;28;20043;-84
2024/01/28 05:46:20;;;;;;;1999.90;999.90;;;-3.10;99.90;;;;;;4978104;28;20040;-84
2024/01/28 05:48:46;;;;;;;1999.90;999.90;;;-3.00;99.90;;;;;;4976790;28;20413;-85
2024/01/28 05:51:12;;;;;;;1999.90;999.90;;;-3.00;99.90;;;;;;4976324;28;20159;-85
2024/01/28 05:53:37;;;;;;;1999.90;999.90;;;-2.90;99.90;;;;;;4976619;28;20027;-85
2024/01/28 05:56:04;;;;;;;1999.90;999.90;;;-3.00;99.90;;;;;;4976224;28;20409;-85
2024/01/28 05:58:30;;;;;;;1999.90;999.90;;;-3.00;99.90;;;;;;4976560;28;20043;-85
2024/01/28 06:00:58;;;;;;;1999.90;999.90;;;-3.00;99.90;;;;;;4976342;28;20405;-84
2024/01/28 06:03:23;;;;;;;1999.90;999.90;;;-3.00;99.90;;;;;;4976385;28;20043;-85
2024/01/28 06:05:49;;;;;;;1999.90;999.90;;;-3.00;99.90;;;;;;4976595;28;20035;-85
2024/01/28 06:08:16;;;;;;;1999.90;999.90;;;-3.00;99.90;;;;;;4976457;28;20035;-85
2024/01/28 06:10:41;;;;;;;1999.90;999.90;;;-3.00;99.90;;;;;;4976157;28;20046;-85
2024/01/28 06:13:07;;;;;;;1999.90;999.90;;;-3.00;99.90;;;;;;4977569;28;20035;-85
2024/01/28 06:15:32;;;;;;;1999.90;999.90;;;-3.10;99.90;;;;;;4976337;28;20464;-85
2024/01/28 06:17:58;;;;;;;1999.90;999.90;;;-3.10;99.90;;;;;;4975753;28;20058;-84
2024/01/28 06:20:24;;;;;;;1999.90;999.90;;;-3.00;99.90;;;;;;4975879;28;20043;-84
2024/01/28 06:22:50;;;;;;;1999.90;999.90;;;-3.00;99.90;;;;;;4976001;28;20035;-84
2024/01/28 06:25:15;;;;;;;1999.90;999.90;;;-3.10;99.90;;;;;;4975967;28;20445;-84
2024/01/28 06:27:41;;;;;;;1999.90;999.90;;;-3.10;99.90;;;;;;4976090;28;20035;-84
2024/01/28 06:30:07;;;;;;;1999.90;999.90;;;-3.10;99.90;;;;;;4975436;28;20074;-84
2024/01/28 06:32:33;;;;;;;1999.90;999.90;;;-3.10;99.90;;;;;;4975948;28;20058;-84
2024/01/28 06:34:58;;;;;;;1999.90;999.90;;;-3.10;99.90;;;;;;4976185;28;20046;-85
2024/01/28 06:37:24;;;;;;;1999.90;999.90;;;-3.10;99.90;;;;;;4976077;28;20035;-85
2024/01/28 06:39:51;;;;;;;1999.90;999.90;;;-3.10;99.90;;;;;;4975798;28;20038;-84
2024/01/28 06:42:20;;;;;;;1999.90;999.90;;;-3.10;99.90;;;;;;4977253;28;20032;-84
2024/01/28 06:44:47;;;;;;;1999.90;999.90;;;-3.10;99.90;;;;;;4975751;28;20508;-84
2024/01/28 06:47:12;;;;;;;1999.90;999.90;;;-3.10;99.90;;;;;;4975902;28;20129;-84
2024/01/28 06:49:38;;;;;;;1999.90;999.90;;;-3.10;99.90;;;;;;4975784;28;20111;-84
2024/01/28 06:52:04;;;;;;;1999.90;999.90;;;-3.10;99.90;;;;;;4975648;28;20417;-84
2024/01/28 06:54:30;;;;;;;1999.90;999.90;;;-3.10;99.90;;;;;;4975735;28;20504;-85
2024/01/28 06:56:56;;;;;;;1999.90;999.90;;;-3.10;99.90;;;;;;4976513;28;20047;-84
2024/01/28 06:59:23;;;;;;;1999.90;999.90;;;-3.10;99.90;;;;;;4976175;28;20035;-84
2024/01/28 07:01:48;;;;;;;1999.90;999.90;;;-3.10;99.90;;;;;;4977294;28;20476;-84
2024/01/28 07:04:14;;;;;;;1999.90;999.90;;;-3.10;99.90;;;;;;4976019;28;20039;-84
2024/01/28 07:06:39;;;;;;;1999.90;999.90;;;-3.10;99.90;;;;;;4975982;28;20031;-84
2024/01/28 07:09:07;;;;;;;1999.90;999.90;;;-3.20;99.90;;;;;;4975558;28;20043;-84
2024/01/28 07:11:33;;;;;;;1999.90;999.90;;;-3.20;99.90;;;;;;4975216;28;20036;-84
2024/01/28 07:13:59;;;;;;;1999.90;999.90;;;-3.10;99.90;;;;;;4976706;28;20481;-84
2024/01/28 07:16:24;;;;;;;1999.90;999.90;;;-3.10;99.90;;;;;;4975442;28;20035;-84
2024/01/28 07:18:52;;;;;;;1999.90;999.90;;;-3.10;99.90;;;;;;4975557;28;20050;-84
2024/01/28 07:21:17;;;;;;;1999.90;999.90;;;-3.00;99.90;;;;;;4976656;28;20114;-85
2024/01/28 07:23:43;;;;;;;1999.90;999.90;;;-3.00;99.90;;;;;;4975465;28;20047;-85
2024/01/28 07:26:09;;;;;;;1999.90;999.90;;;-3.00;99.90;;;;;;4975334;28;20082;-84
2024/01/28 07:28:35;;;;;;;1999.90;999.90;;;-3.00;99.90;;;;;;4975201;28;20039;-84
2024/01/28 07:31:00;;;;;;;1999.90;999.90;;;-3.00;99.90;;;;;;4973689;28;20047;-84
2024/01/28 07:33:26;;;;;;;1999.90;999.90;;;-2.90;99.90;;;;;;4975270;28;20043;-83
2024/01/28 07:35:52;;;;;;;1999.90;999.90;;;-2.80;99.90;;;;;;4976402;28;20042;-83
2024/01/28 07:38:17;;;;;;;1999.90;999.90;;;-2.80;99.90;;;;;;4976597;28;20176;-84
2024/01/28 07:40:43;;;;;;;1999.90;999.90;;;-2.70;99.90;;;;;;4974871;28;20070;-84
2024/01/28 07:43:08;;;;;;;1999.90;999.90;;;-2.70;99.90;;;;;;4976293;28;20094;-85
2024/01/28 07:45:37;;;;;;;1999.90;999.90;;;-2.70;99.90;;;;;;4975080;28;20039;-84
2024/01/28 07:48:03;;;;;;;1999.90;999.90;;;-2.70;99.90;;;;;;4974924;28;20028;-84
2024/01/28 07:50:28;;;;;;;1999.90;999.90;;;-2.60;99.90;;;;;;4974599;28;20103;-84
2024/01/28 07:52:54;;;;;;;1999.90;999.90;;;-2.60;99.90;;;;;;4974759;28;20054;-84
2024/01/28 07:55:19;;;;;;;1999.90;999.90;;;-2.50;99.90;;;;;;4974831;28;20401;-84
2024/01/28 07:57:45;;;;;;;1999.90;999.90;;;-2.50;99.90;;;;;;4974693;28;20067;-84
2024/01/28 08:00:11;;;;;;;1999.90;999.90;;;-2.50;99.90;;;;;;4974706;28;20039;-84
2024/01/28 08:02:37;;;;;;;1999.90;999.90;;;-2.50;99.90;;;;;;4975891;28;20050;-83
2024/01/28 08:05:10;;;;;;;1999.90;999.90;;;-2.40;99.90;;;;;;4975414;28;20035;-87
2024/01/28 08:07:40;;;;;;;1999.90;999.90;;;-2.40;99.90;;;;;;4975974;28;20032;-86
2024/01/28 08:10:07;;;;;;;1999.90;999.90;;;-2.40;99.90;;;;;;4974765;28;20036;-85
2024/01/28 08:12:32;;;;;;;1999.90;999.90;;;-2.30;99.90;;;;;;4974447;28;20038;-84
2024/01/28 08:14:58;;;;;;;1999.90;999.90;;;-2.40;99.90;;;;;;4976340;28;20042;-83
2024/01/28 08:17:23;;;;;;;1999.90;999.90;;;-2.30;99.90;;;;;;4975537;28;20473;-83
2024/01/28 08:19:49;;;;;;;1999.90;999.90;;;-2.20;99.90;;;;;;4974517;28;20035;-82
2024/01/28 08:22:14;;;;;;;1999.90;999.90;;;-2.20;99.90;;;;;;4974681;28;20035;-83
2024/01/28 08:24:40;;;;;;;1999.90;999.90;;;-2.10;99.90;;;;;;4974498;28;20047;-83
2024/01/28 08:27:06;;;;;;;1999.90;999.90;;;-2.00;99.90;;;;;;4974471;28;20038;-84
2024/01/28 08:29:32;;;;;;;1999.90;999.90;;;-2.00;99.90;;;;;;4977892;28;20049;-88
2024/01/28 08:31:58;;;;;;;1999.90;999.90;;;-1.90;99.90;;;;;;4975616;28;20042;-83
2024/01/28 08:34:23;;;;;;;1999.90;999.90;;;-1.00;99.90;;;;;;4975594;28;20035;-83
2024/01/28 08:36:50;;;;;;;1999.90;999.90;;;-1.80;99.90;;;;;;4974466;28;20553;-83
2024/01/28 08:39:15;;;;;;;1999.90;999.90;;;-1.80;99.90;;;;;;4974586;28;20039;-82
2024/01/28 08:41:41;;;;;;;1999.90;999.90;;;-1.80;99.90;;;;;;4978415;28;20031;-82
2024/01/28 08:44:07;;;;;;;1999.90;999.90;;;-1.70;99.90;;;;;;4980491;28;20050;-84
2024/01/28 08:46:32;;;;;;;1999.90;999.90;;;-1.60;99.90;;;;;;4978201;28;20038;-84
2024/01/28 08:48:58;;;;;;;1999.90;999.90;;;-1.50;99.90;;;;;;4977522;28;20035;-84
2024/01/28 08:51:24;;;;;;;1999.90;999.90;;;-1.50;99.90;;;;;;4978367;28;20027;-85
2024/01/28 08:53:49;;;;;;;1999.90;999.90;;;-1.40;99.90;;;;;;4978425;28;20047;-83
2024/01/28 08:56:15;;;;;;;1999.90;999.90;;;-1.40;99.90;;;;;;4974728;28;20130;-83
2024/01/28 08:58:41;;;;;;;1999.90;999.90;;;-1.40;99.90;;;;;;4985190;28;20405;-84
2024/01/28 09:01:08;;;;;;;1999.90;999.90;;;-1.30;99.90;;;;;;4998010;28;20058;-84
2024/01/28 09:03:33;;;;;;;1999.90;999.90;;;-1.30;99.90;;;;;;4996547;28;20523;-83
2024/01/28 09:06:00;;;;;;;1999.90;999.90;;;-1.30;99.90;;;;;;4998314;28;20039;-84
2024/01/28 09:08:30;;;;;;;1999.90;999.90;;;-1.20;99.90;;;;;;4996950;28;20186;-84
2024/01/28 09:10:56;;;;;;;1999.90;999.90;;;-1.20;99.90;;;;;;4996883;28;20038;-83
2024/01/28 09:13:21;;;;;;;1999.90;999.90;;;-1.10;99.90;;;;;;4996734;28;20531;-83
2024/01/28 09:15:47;;;;;;;1999.90;999.90;;;-1.00;99.90;;;;;;4998036;28;20137;-84
2024/01/28 09:18:12;;;;;;;1999.90;999.90;;;-1.00;99.90;;;;;;4997919;28;20031;-84
2024/01/28 09:20:38;;;;;;;1999.90;999.90;;;-0.90;99.90;;;;;;4996741;28;20038;-83
2024/01/28 09:23:04;;;;;;;1999.90;999.90;;;-0.90;99.90;;;;;;4998038;28;20038;-84
2024/01/28 09:25:32;;;;;;;1999.90;999.90;;;-0.80;99.90;;;;;;4996593;28;20042;-84
2024/01/28 09:27:58;;;;;;;1999.90;999.90;;;-0.70;99.90;;;;;;4996453;28;20031;-84
2024/01/28 09:30:24;;;;;;;1999.90;999.90;;;-0.60;99.90;;;;;;4997674;28;20042;-85
2024/01/28 09:32:52;;;;;;;1999.90;999.90;;;-0.50;99.90;;;;;;4997744;28;20396;-84
2024/01/28 09:35:18;;;;;;;1999.90;999.90;;;-0.50;99.90;;;;;;4996683;28;20031;-85
2024/01/28 09:37:43;;;;;;;1999.90;999.90;;;-0.50;99.90;;;;;;4996418;28;20026;-84
2024/01/28 09:40:13;;;;;;;1999.90;999.90;;;-0.40;99.90;;;;;;4996235;28;20086;-85
2024/01/28 09:42:39;;;;;;;1999.90;999.90;;;-0.30;99.90;;;;;;4996317;28;20043;-86
2024/01/28 09:45:06;;;;;;;1999.90;999.90;;;0.00;99.90;;;;;;4996238;28;20038;-86
2024/01/28 09:47:32;;;;;;;1999.90;999.90;;;-0.30;99.90;;;;;;4996302;28;20139;-87
2024/01/28 09:50:00;;;;;;;1999.90;999.90;;;-0.20;99.90;;;;;;4996062;28;20034;-86
2024/01/28 09:52:27;;;;;;;1999.90;999.90;;;-0.10;99.90;;;;;;4995129;28;20115;-86
2024/01/28 09:54:52;;;;;;;1999.90;999.90;;;0.00;99.90;;;;;;4996001;28;20081;-87
2024/01/28 09:57:18;;;;;;;1999.90;999.90;;;0.00;99.90;;;;;;4996357;28;20086;-86
2024/01/28 09:59:45;;;;;;;1999.90;999.90;;;0.10;99.90;;;;;;4995842;28;20508;-87
2024/01/28 10:02:12;;;;;;;1999.90;999.90;;;0.10;99.90;;;;;;4996144;28;20819;-86
2024/01/28 10:04:37;;;;;;;1999.90;999.90;;;0.20;99.90;;;;;;4996018;28;20047;-86
2024/01/28 10:07:03;;;;;;;1999.90;999.90;;;0.20;99.90;;;;;;4996240;28;20043;-87
2024/01/28 10:09:30;;;;;;;1999.90;999.90;;;0.30;99.90;;;;;;4996117;28;20069;-86
2024/01/28 10:12:00;;;;;;;1999.90;999.90;;;0.30;99.90;;;;;;4995859;28;20035;-87
2024/01/28 10:14:26;;;;;;;1999.90;999.90;;;0.30;99.90;;;;;;4995691;28;20035;-87
2024/01/28 10:16:52;;;;;;;1999.90;999.90;;;0.30;99.90;;;;;;4995801;28;20821;-87
2024/01/28 10:19:17;;;;;;;1999.90;999.90;;;0.30;99.90;;;;;;4997373;28;20031;-86
2024/01/28 10:21:43;;;;;;;1999.90;999.90;;;0.40;99.90;;;;;;4995658;28;20030;-86
2024/01/28 10:24:10;;;;;;;1999.90;999.90;;;0.40;99.90;;;;;;4995919;28;20042;-86
2024/01/28 10:26:36;;;;;;;1999.90;999.90;;;0.40;99.90;;;;;;4995988;28;20031;-86
2024/01/28 10:29:02;;;;;;;1999.90;999.90;;;0.40;99.90;;;;;;4996377;28;20038;-87
2024/01/28 10:31:27;;;;;;;1999.90;999.90;;;0.50;99.90;;;;;;4995516;28;20049;-86
2024/01/28 10:33:53;;;;;;;1999.90;999.90;;;0.50;99.90;;;;;;4996102;28;20049;-86
2024/01/28 10:36:18;;;;;;;1999.90;999.90;;;0.50;99.90;;;;;;4996115;28;20053;-86
2024/01/28 10:38:45;;;;;;;1999.90;999.90;;;0.50;99.90;;;;;;4996058;28;20034;-86
2024/01/28 10:41:17;;;;;;;1999.90;999.90;;;0.60;99.90;;;;;;4995842;28;20779;-86
2024/01/28 10:43:57;;;;;;;1999.90;999.90;;;0.60;99.90;;;;;;4997475;28;20066;-87
2024/01/28 10:46:39;;;;;;;1999.90;999.90;;;0.60;99.90;;;;;;4996890;28;20098;-85
2024/01/28 10:49:10;;;;;;;1999.90;999.90;;;0.60;99.90;;;;;;4999792;28;20513;-87
2024/01/28 10:51:38;;;;;;;1999.90;999.90;;;0.70;99.90;;;;;;4997596;28;20037;-87
2024/01/28 10:54:04;;;;;;;1999.90;999.90;;;0.80;99.90;;;;;;4995805;28;20106;-87
2024/01/28 10:56:32;;;;;;;1999.90;999.90;;;0.90;99.90;;;;;;4995336;28;20122;-87
2024/01/28 10:58:57;;;;;;;1999.90;999.90;;;1.10;99.90;;;;;;4995344;28;20126;-87
2024/01/28 11:01:24;;;;;;;1999.90;999.90;;;1.00;99.90;;;;;;4995331;28;20467;-86
2024/01/28 11:03:52;;;;;;;1999.90;999.90;;;1.00;99.90;;;;;;4995109;28;20492;-86
2024/01/28 11:06:18;;;;;;;1999.90;999.90;;;1.10;99.90;;;;;;4995525;28;20034;-86
2024/01/28 11:08:45;;;;;;;1999.90;999.90;;;1.10;99.90;;;;;;4995605;28;20627;-87
2024/01/28 11:11:12;;;;;;;1999.90;999.90;;;1.10;99.90;;;;;;4995060;28;20035;-87
2024/01/28 11:13:38;;;;;;;1999.90;999.90;;;1.10;99.90;;;;;;4994892;28;20038;-87
2024/01/28 11:16:12;;;;;;;1999.90;999.90;;;1.20;99.90;;;;;;4996846;28;20046;-88
2024/01/28 11:18:37;;;;;;;1999.90;999.90;;;1.30;99.90;;;;;;4995886;28;20066;-88
2024/01/28 11:21:11;;;;;;;1999.90;999.90;;;1.40;99.90;;;;;;4995701;28;20058;-87
2024/01/28 11:23:47;;;;;;;1999.90;999.90;;;1.60;99.90;;;;;;4995578;28;20042;-86
2024/01/28 11:26:17;;;;;;;1999.90;999.90;;;1.80;99.90;;;;;;4994962;28;20489;-86
2024/01/28 11:28:49;;;;;;;1999.90;999.90;;;1.90;99.90;;;;;;4994692;28;20038;-86
2024/01/28 11:31:32;;;;;;;1999.90;999.90;;;2.20;99.90;;;;;;4994253;28;20077;-86
2024/01/28 11:34:21;;;;;;;1999.90;999.90;;;2.20;99.90;;;;;;4996358;28;20042;-86
2024/01/28 11:36:52;;;;;;;1999.90;999.90;;;2.20;99.90;;;;;;4994656;28;20045;-86
2024/01/28 11:39:48;;;;;;;1999.90;999.90;;;2.30;99.90;;;;;;4994793;28;20129;-87
2024/01/28 11:42:19;;;;;;;1999.90;999.90;;;2.40;99.90;;;;;;4994991;28;20039;-86
2024/01/28 11:44:44;;;;;;;1999.90;999.90;;;2.60;99.90;;;;;;4994586;28;20039;-86
2024/01/28 11:47:13;;;;;;;1999.90;999.90;;;2.70;99.90;;;;;;4994724;28;20039;-86
2024/01/28 11:49:39;;;;;;;1999.90;999.90;;;2.70;99.90;;;;;;4994252;28;20035;-86
2024/01/28 11:52:09;;;;;;;1999.90;999.90;;;2.80;99.90;;;;;;4994073;28;20775;-86
2024/01/28 11:54:38;;;;;;;1999.90;999.90;;;2.80;99.90;;;;;;4994436;28;20039;-86
2024/01/28 11:57:05;;;;;;;1999.90;999.90;;;2.80;99.90;;;;;;4994511;28;20437;-86